Time;durP1;ratioP1;P1;durP2;ratioP2;P2;SDS_P1;SDS_P2;PMS_P1;PMS_P2;Temp;Humidity;BMP_temperature;BMP_pressure;BME280_temperature;BME280_humidity;BME280_pressure;Samples;Min_cycle;Max_cycle;Signal;HPM_P1;HPM_P2
2022/07/20 00:01:55;;;;;;;5.70;3.60;;;25.80;52.20;;;;;;220347;1268;22523;-57
2022/07/20 00:06:58;;;;;;;7.90;3.70;;;25.80;52.20;;;;;;220320;1268;22550;-58
2022/07/20 00:12:02;;;;;;;6.30;4.10;;;25.70;52.20;;;;;;220241;1267;26490;-58
2022/07/20 00:17:06;;;;;;;7.50;4.00;;;25.80;53.00;;;;;;220142;1268;22550;-57
2022/07/20 00:22:10;;;;;;;5.80;4.10;;;25.70;52.40;;;;;;220555;1267;22525;-57
2022/07/20 00:27:13;;;;;;;5.10;3.60;;;25.70;52.30;;;;;;220658;1267;24576;-59
2022/07/20 00:32:17;;;;;;;4.90;4.00;;;25.70;52.40;;;;;;220413;1267;22817;-58
2022/07/20 00:37:21;;;;;;;7.50;4.00;;;25.70;52.40;;;;;;220021;1268;22535;-58
2022/07/20 00:42:24;;;;;;;5.20;3.90;;;25.70;52.40;;;;;;220142;1267;22528;-57
2022/07/20 00:47:28;;;;;;;5.40;4.00;;;25.70;52.40;;;;;;220737;1268;25340;-59
2022/07/20 00:52:32;;;;;;;5.50;3.30;;;25.70;52.70;;;;;;220506;1267;24222;-56
2022/07/20 00:57:36;;;;;;;7.00;3.80;;;25.70;52.40;;;;;;220368;1267;24141;-58
2022/07/20 01:02:41;;;;;;;6.80;3.90;;;25.70;52.40;;;;;;220233;1268;22564;-59
2022/07/20 01:07:46;;;;;;;6.60;3.90;;;25.70;52.40;;;;;;220177;1267;25232;-58
2022/07/20 01:12:49;;;;;;;5.00;3.80;;;25.70;52.40;;;;;;220383;1267;22567;-59
2022/07/20 01:17:53;;;;;;;7.50;4.10;;;25.70;52.50;;;;;;220138;1267;23924;-59
2022/07/20 01:22:57;;;;;;;8.30;4.10;;;25.70;52.80;;;;;;220197;1267;25249;-58
2022/07/20 01:28:05;;;;;;;9.00;4.30;;;25.60;52.30;;;;;;220227;1267;22707;-60
2022/07/20 01:33:09;;;;;;;7.70;4.40;;;25.60;52.30;;;;;;219977;1267;568850;-57
2022/07/20 01:38:16;;;;;;;5.20;3.80;;;25.60;52.30;;;;;;220205;1267;25236;-59
2022/07/20 01:43:22;;;;;;;6.40;4.50;;;25.60;52.40;;;;;;220250;1268;23907;-58
2022/07/20 01:48:25;;;;;;;5.30;4.40;;;25.50;52.70;;;;;;220198;1268;22689;-59
2022/07/20 01:53:29;;;;;;;5.40;3.90;;;25.50;52.50;;;;;;220247;1267;25299;-58
2022/07/20 01:58:33;;;;;;;5.00;3.70;;;25.50;52.80;;;;;;220601;1268;22571;-59
2022/07/20 02:03:38;;;;;;;10.00;4.20;;;25.50;52.50;;;;;;220127;1268;25370;-58
2022/07/20 02:08:42;;;;;;;5.80;4.10;;;25.50;52.50;;;;;;220329;1267;23921;-58
2022/07/20 02:13:46;;;;;;;6.20;3.90;;;25.50;52.90;;;;;;220122;1267;24739;-61
2022/07/20 02:18:57;;;;;;;6.70;4.10;;;25.50;52.60;;;;;;220106;1270;22557;-57
2022/07/20 02:24:01;;;;;;;6.20;4.30;;;25.50;52.60;;;;;;220414;1267;22556;-57
2022/07/20 02:29:04;;;;;;;5.90;4.40;;;25.50;52.60;;;;;;220335;1267;23259;-58
2022/07/20 02:34:08;;;;;;;5.30;3.80;;;25.50;52.60;;;;;;220316;1267;25245;-57
2022/07/20 02:39:12;;;;;;;8.00;4.40;;;25.50;52.60;;;;;;220540;1267;22557;-58
2022/07/20 02:44:16;;;;;;;7.70;4.00;;;25.40;52.50;;;;;;220172;1267;22552;-58
2022/07/20 02:49:19;;;;;;;5.50;4.00;;;25.40;52.70;;;;;;220083;1268;25256;-60
2022/07/20 02:54:23;;;;;;;6.10;4.20;;;25.40;52.60;;;;;;220284;1267;23052;-58
2022/07/20 02:59:27;;;;;;;7.30;4.30;;;25.40;52.80;;;;;;220671;1267;24678;-58
2022/07/20 03:04:30;;;;;;;6.80;4.10;;;25.40;52.60;;;;;;220150;1267;24214;-59
2022/07/20 03:09:34;;;;;;;6.60;4.40;;;25.40;52.70;;;;;;220058;1267;22531;-58
2022/07/20 03:14:37;;;;;;;6.10;4.40;;;25.40;52.70;;;;;;220382;1267;22532;-58
2022/07/20 03:19:41;;;;;;;5.00;3.50;;;25.40;52.70;;;;;;220679;1267;24296;-59
2022/07/20 03:24:49;;;;;;;5.80;4.40;;;25.40;52.70;;;;;;220298;1267;22527;-58
2022/07/20 03:29:52;;;;;;;6.40;4.20;;;25.40;52.80;;;;;;220353;1267;22564;-59
2022/07/20 03:34:57;;;;;;;6.80;4.20;;;25.30;52.60;;;;;;220832;1267;22550;-58
2022/07/20 03:40:05;;;;;;;5.30;4.10;;;25.30;52.70;;;;;;220444;1267;22608;-58
2022/07/20 03:45:09;;;;;;;6.80;4.50;;;25.30;52.70;;;;;;220636;1270;23092;-59
2022/07/20 03:50:13;;;;;;;7.80;4.40;;;25.30;52.60;;;;;;220621;1267;25241;-58
2022/07/20 03:55:17;;;;;;;7.50;4.40;;;25.30;52.60;;;;;;220521;1268;22660;-58
2022/07/20 04:00:21;;;;;;;7.30;4.60;;;25.30;52.70;;;;;;220445;1266;22698;-58
2022/07/20 04:05:24;;;;;;;6.20;4.50;;;25.30;52.70;;;;;;220323;1267;25229;-58
2022/07/20 04:10:28;;;;;;;5.90;4.10;;;25.40;52.70;;;;;;220238;1267;25216;-58
2022/07/20 04:15:32;;;;;;;6.20;4.00;;;25.30;52.60;;;;;;220413;1267;25239;-59
2022/07/20 04:20:44;;;;;;;6.60;4.30;;;25.30;52.60;;;;;;220350;1267;24246;-58
2022/07/20 04:25:47;;;;;;;7.30;4.60;;;25.30;52.50;;;;;;220327;1267;22531;-58
2022/07/20 04:30:51;;;;;;;7.00;4.50;;;25.30;53.10;;;;;;220410;1267;22525;-57
2022/07/20 04:35:55;;;;;;;6.90;4.60;;;25.40;52.50;;;;;;220568;1267;22689;-59
2022/07/20 04:40:59;;;;;;;6.20;4.50;;;25.40;52.50;;;;;;220429;1268;24268;-59
2022/07/20 04:46:02;;;;;;;7.30;4.50;;;25.40;52.50;;;;;;220194;1267;25236;-57
2022/07/20 04:51:08;;;;;;;6.30;5.00;;;25.40;52.50;;;;;;220416;1267;22532;-59
2022/07/20 04:56:12;;;;;;;6.50;4.50;;;25.40;52.50;;;;;;220280;1267;23899;-57
2022/07/20 05:01:16;;;;;;;7.40;5.50;;;25.40;52.80;;;;;;220183;1268;25401;-58
2022/07/20 05:06:23;;;;;;;6.70;4.60;;;25.40;52.80;;;;;;220322;1267;22541;-58
2022/07/20 05:11:30;;;;;;;7.20;4.80;;;25.40;52.40;;;;;;220224;1267;24201;-57
2022/07/20 05:16:39;;;;;;;6.90;4.90;;;25.40;52.70;;;;;;220205;1267;22528;-58
2022/07/20 05:21:42;;;;;;;6.40;4.30;;;25.40;52.40;;;;;;220333;1267;25494;-58
2022/07/20 05:26:49;;;;;;;7.30;4.60;;;25.40;52.50;;;;;;220432;1267;22532;-57
2022/07/20 05:32:00;;;;;;;8.00;4.80;;;25.40;52.50;;;;;;220255;1269;22582;-59
2022/07/20 05:37:04;;;;;;;7.70;4.70;;;25.40;52.50;;;;;;220361;1267;22544;-58
2022/07/20 05:42:15;;;;;;;7.40;4.60;;;25.40;52.50;;;;;;220340;1267;22544;-58
2022/07/20 05:47:22;;;;;;;7.50;4.60;;;25.40;52.60;;;;;;220492;1268;22607;-59
2022/07/20 05:52:33;;;;;;;10.30;5.60;;;25.40;52.60;;;;;;220419;1267;22550;-58
2022/07/20 05:57:42;;;;;;;6.40;4.80;;;25.40;52.60;;;;;;220268;1268;23250;-57
2022/07/20 06:02:49;;;;;;;10.50;5.40;;;25.40;52.70;;;;;;220264;1267;22551;-58
2022/07/20 06:08:05;;;;;;;6.40;4.90;;;25.40;52.80;;;;;;220034;1270;24224;-58
2022/07/20 06:13:08;;;;;;;8.20;4.70;;;25.50;52.70;;;;;;220845;1267;24328;-58
2022/07/20 06:18:12;;;;;;;7.70;5.10;;;25.50;52.70;;;;;;220497;1268;25239;-60
2022/07/20 06:23:24;;;;;;;8.40;5.00;;;25.50;52.80;;;;;;220708;1267;26594;-58
2022/07/20 06:28:28;;;;;;;7.30;5.00;;;25.50;53.10;;;;;;220314;1268;22545;-58
2022/07/20 06:33:32;;;;;;;6.90;4.80;;;25.50;52.80;;;;;;220470;1267;22531;-58
2022/07/20 06:38:35;;;;;;;7.50;4.60;;;25.50;52.80;;;;;;220644;1267;22554;-59
2022/07/20 06:43:39;;;;;;;6.50;4.70;;;25.50;52.80;;;;;;220208;1267;25238;-59
2022/07/20 06:48:43;;;;;;;8.90;4.70;;;25.60;53.00;;;;;;220124;1268;22579;-59
2022/07/20 06:53:46;;;;;;;7.30;5.00;;;25.60;52.80;;;;;;220126;1267;24181;-59
2022/07/20 06:58:50;;;;;;;6.80;5.00;;;25.60;52.90;;;;;;219839;1268;22544;-59
2022/07/20 07:03:57;;;;;;;9.30;4.80;;;25.70;52.90;;;;;;220244;1267;22544;-54
2022/07/20 07:09:02;;;;;;;10.30;5.00;;;25.70;52.90;;;;;;220111;1267;22569;-57
2022/07/20 07:14:06;;;;;;;8.10;4.70;;;25.70;52.90;;;;;;220311;1267;24313;-59
2022/07/20 07:19:10;;;;;;;6.00;4.60;;;25.70;53.00;;;;;;220289;1267;22556;-59
2022/07/20 07:24:14;;;;;;;7.10;5.20;;;25.70;53.00;;;;;;219939;1270;24549;-60
2022/07/20 07:29:19;;;;;;;6.20;4.20;;;25.80;53.00;;;;;;220029;1269;25930;-59
2022/07/20 07:34:25;;;;;;;6.40;4.40;;;25.80;52.90;;;;;;220301;1267;22528;-59
2022/07/20 07:39:29;;;;;;;7.90;4.50;;;25.80;53.00;;;;;;220310;1267;22548;-59
2022/07/20 07:44:32;;;;;;;8.30;4.50;;;25.80;53.10;;;;;;220201;1267;23818;-57
2022/07/20 07:49:36;;;;;;;7.10;4.60;;;25.90;53.10;;;;;;220352;1268;23698;-61
2022/07/20 07:54:39;;;;;;;5.40;4.30;;;25.90;53.30;;;;;;220104;1268;24231;-58
2022/07/20 07:59:43;;;;;;;8.40;4.50;;;25.90;53.30;;;;;;220278;1267;22529;-60
2022/07/20 08:04:47;;;;;;;5.80;4.30;;;25.90;53.30;;;;;;220282;1268;25297;-56
2022/07/20 08:09:51;;;;;;;6.60;4.30;;;25.90;53.30;;;;;;220366;1267;24243;-59
2022/07/20 08:14:55;;;;;;;5.90;4.50;;;26.00;53.30;;;;;;220261;1267;22556;-59
2022/07/20 08:19:58;;;;;;;5.60;4.30;;;26.00;53.00;;;;;;220759;1267;24381;-59
2022/07/20 08:25:03;;;;;;;6.00;4.10;;;26.00;53.00;;;;;;220498;1266;25243;-57
2022/07/20 08:30:08;;;;;;;7.30;3.90;;;26.00;52.90;;;;;;220377;1267;22552;-58
2022/07/20 08:35:32;;;;;;;7.40;4.30;;;26.00;53.10;;;;;;220131;1266;25909;-59
2022/07/20 08:40:36;;;;;;;7.90;4.40;;;26.10;52.40;;;;;;220367;1267;22541;-59
2022/07/20 08:45:40;;;;;;;5.40;4.50;;;26.20;51.90;;;;;;220778;1267;22714;-61
2022/07/20 08:50:45;;;;;;;7.40;4.90;;;26.20;52.10;;;;;;220438;1267;23362;-61
2022/07/20 08:55:49;;;;;;;8.90;5.30;;;26.20;52.50;;;;;;220328;1267;25342;-57
2022/07/20 09:00:52;;;;;;;9.80;4.60;;;26.20;52.50;;;;;;220735;1267;26476;-58
2022/07/20 09:06:07;;;;;;;5.90;4.20;;;26.00;53.10;;;;;;220739;1266;22531;-60
2022/07/20 09:11:11;;;;;;;8.40;4.40;;;25.70;55.30;;;;;;220530;1266;22524;-59
2022/07/20 09:16:32;;;;;;;5.70;4.40;;;25.60;55.60;;;;;;220315;1267;25300;-59
2022/07/20 09:21:36;;;;;;;6.90;4.20;;;25.60;53.40;;;;;;220289;1267;22698;-60
2022/07/20 09:26:39;;;;;;;8.00;4.20;;;25.60;53.20;;;;;;220516;1267;24876;-57
2022/07/20 09:31:45;;;;;;;6.30;4.20;;;25.60;55.80;;;;;;220110;1270;25165;-59
2022/07/20 09:36:49;;;;;;;7.60;4.40;;;25.70;54.80;;;;;;220454;1267;25245;-64
2022/07/20 09:41:56;;;;;;;4.60;3.70;;;25.90;54.10;;;;;;220720;1267;25474;-59
2022/07/20 09:47:11;;;;;;;6.20;3.80;;;26.00;53.60;;;;;;220594;1267;22629;-59
2022/07/20 09:52:15;;;;;;;6.20;4.00;;;26.00;53.70;;;;;;220294;1267;22570;-59
2022/07/20 09:57:39;;;;;;;4.60;3.50;;;26.10;53.40;;;;;;220520;1267;23812;-59
2022/07/20 10:08:23;;;;;;;4.50;3.60;;;26.10;53.20;;;;;;220596;1267;22540;-57
2022/07/20 10:13:27;;;;;;;7.30;4.30;;;26.20;53.10;;;;;;228175;1266;22437;-59
2022/07/20 10:18:31;;;;;;;5.80;3.50;;;26.20;53.00;;;;;;227924;1266;22379;-58
2022/07/20 10:23:35;;;;;;;5.70;3.90;;;26.30;52.60;;;;;;223942;1267;22721;-60
2022/07/20 10:28:38;;;;;;;4.50;3.40;;;26.30;52.40;;;;;;220452;1267;22568;-58
2022/07/20 10:33:46;;;;;;;5.60;3.50;;;26.30;52.40;;;;;;220619;1267;24214;-59
2022/07/20 10:38:50;;;;;;;5.80;3.40;;;26.40;51.60;;;;;;220686;1267;24332;-58
2022/07/20 10:44:22;;;;;;;6.80;3.80;;;26.40;51.80;;;;;;220685;1267;22542;-58
2022/07/20 10:50:02;;;;;;;4.80;3.40;;;26.40;52.30;;;;;;220192;1268;22602;-59
2022/07/20 10:55:06;;;;;;;7.20;3.70;;;26.20;53.90;;;;;;220101;1270;22590;-56
2022/07/20 11:00:13;;;;;;;8.50;3.50;;;26.20;51.90;;;;;;220757;1270;25308;-58
2022/07/20 11:05:21;;;;;;;7.20;3.60;;;26.50;48.00;;;;;;220498;1267;24212;-59
2022/07/20 11:10:30;;;;;;;5.00;3.60;;;26.20;51.70;;;;;;220214;1267;22639;-59
2022/07/20 11:15:52;;;;;;;6.10;3.60;;;26.10;52.80;;;;;;220280;1267;22555;-57
2022/07/20 11:20:57;;;;;;;5.50;3.60;;;26.00;53.30;;;;;;220326;1267;22530;-56
2022/07/20 11:26:01;;;;;;;6.00;3.70;;;25.90;53.60;;;;;;220409;1267;25664;-60
2022/07/20 11:31:07;;;;;;;7.80;3.50;;;25.80;53.40;;;;;;220542;1267;22556;-58
2022/07/20 11:36:14;;;;;;;5.60;3.70;;;25.80;51.10;;;;;;220470;1270;22529;-58
2022/07/20 11:41:22;;;;;;;4.90;3.20;;;25.90;51.50;;;;;;220675;1267;22583;-58
2022/07/20 11:46:28;;;;;;;5.90;3.70;;;25.80;52.70;;;;;;220334;1267;23922;-57
2022/07/20 11:51:35;;;;;;;5.60;3.60;;;25.80;54.10;;;;;;220699;1267;22704;-59
2022/07/20 11:56:39;;;;;;;6.00;3.20;;;25.80;54.20;;;;;;220859;1267;23244;-57
2022/07/20 12:01:43;;;;;;;6.00;3.40;;;25.70;54.80;;;;;;220288;1267;22532;-58
2022/07/20 12:06:47;;;;;;;4.50;3.40;;;25.70;53.30;;;;;;220170;1270;24307;-59
2022/07/20 12:12:04;;;;;;;4.40;3.20;;;25.70;51.80;;;;;;220743;1267;22554;-61
2022/07/20 12:17:12;;;;;;;4.70;3.30;;;25.70;52.50;;;;;;220339;1267;22544;-57
2022/07/20 12:22:23;;;;;;;5.40;3.20;;;25.80;52.10;;;;;;220306;1268;22532;-60
2022/07/20 12:27:30;;;;;;;4.50;3.30;;;26.00;51.60;;;;;;220363;1267;23022;-58
2022/07/20 12:32:36;;;;;;;4.60;3.40;;;26.10;51.60;;;;;;220343;1267;22566;-62
2022/07/20 12:37:55;;;;;;;5.10;3.50;;;26.20;51.60;;;;;;220528;1267;22537;-58
2022/07/20 12:43:01;;;;;;;6.20;3.30;;;26.30;51.60;;;;;;220388;1267;26196;-58
2022/07/20 12:48:06;;;;;;;6.10;3.50;;;26.40;51.60;;;;;;220334;1267;24368;-58
2022/07/20 12:53:14;;;;;;;6.20;3.70;;;26.40;51.40;;;;;;220156;1270;25244;-58
2022/07/20 12:58:18;;;;;;;5.80;3.50;;;26.50;51.60;;;;;;220501;1267;22545;-59
2022/07/20 13:03:22;;;;;;;4.60;3.40;;;26.50;51.70;;;;;;220188;1270;22714;-57
2022/07/20 13:08:27;;;;;;;4.20;3.20;;;26.50;51.70;;;;;;220237;1270;22591;-57
2022/07/20 13:13:33;;;;;;;7.10;3.60;;;26.60;51.50;;;;;;220435;1267;23722;-59
2022/07/20 13:18:42;;;;;;;5.00;3.50;;;26.60;51.80;;;;;;220067;1270;22527;-58
2022/07/20 13:23:45;;;;;;;4.90;3.70;;;26.70;51.30;;;;;;220644;1267;23061;-58
2022/07/20 13:28:50;;;;;;;7.50;4.00;;;26.80;51.20;;;;;;220360;1267;22540;-59
2022/07/20 13:33:55;;;;;;;6.50;4.40;;;27.50;45.50;;;;;;219943;1267;481083;-57
2022/07/20 13:39:03;;;;;;;5.80;3.80;;;27.30;46.20;;;;;;220254;1267;22531;-58
2022/07/20 13:44:07;;;;;;;5.10;3.90;;;27.10;47.60;;;;;;220305;1267;24246;-58
2022/07/20 13:49:11;;;;;;;5.80;3.90;;;27.00;48.70;;;;;;220454;1267;22550;-59
2022/07/20 13:54:15;;;;;;;5.30;3.90;;;27.00;49.20;;;;;;220333;1267;24290;-58
2022/07/20 13:59:27;;;;;;;6.30;4.20;;;27.00;49.40;;;;;;220221;1267;22479;-57
2022/07/20 14:04:46;;;;;;;5.80;4.40;;;27.00;49.20;;;;;;220525;1268;24215;-58
2022/07/20 14:09:51;;;;;;;6.10;4.20;;;27.00;49.70;;;;;;221229;1268;22544;-59
2022/07/20 14:14:55;;;;;;;5.80;3.80;;;26.90;49.00;;;;;;219911;1270;22559;-58
2022/07/20 14:19:59;;;;;;;5.70;4.20;;;26.60;47.90;;;;;;220607;1267;23045;-57
2022/07/20 14:25:05;;;;;;;5.80;3.80;;;26.40;50.10;;;;;;220505;1267;24749;-56
2022/07/20 14:30:09;;;;;;;5.20;4.10;;;26.30;48.80;;;;;;220168;1270;22529;-55
2022/07/20 14:35:14;;;;;;;7.10;3.80;;;26.40;50.80;;;;;;220311;1268;22544;-56
2022/07/20 14:40:17;;;;;;;5.20;4.00;;;26.40;53.20;;;;;;220637;1268;24260;-57
2022/07/20 14:45:25;;;;;;;5.60;3.60;;;26.30;52.20;;;;;;220508;1270;24218;-59
2022/07/20 14:50:33;;;;;;;6.90;4.30;;;26.50;52.20;;;;;;220080;1269;22557;-58
2022/07/20 14:55:37;;;;;;;5.00;3.90;;;26.60;52.30;;;;;;219910;1271;24212;-58
2022/07/20 15:00:49;;;;;;;5.30;3.80;;;26.70;51.50;;;;;;220235;1267;22544;-57
2022/07/20 15:05:54;;;;;;;5.60;4.20;;;26.80;51.30;;;;;;220391;1267;22556;-58
2022/07/20 15:11:07;;;;;;;6.90;3.80;;;26.90;51.10;;;;;;220332;1268;22519;-58
2022/07/20 15:16:16;;;;;;;4.20;3.60;;;26.90;51.00;;;;;;220490;1270;22685;-57
2022/07/20 15:21:26;;;;;;;5.00;3.90;;;26.90;51.10;;;;;;220447;1267;22547;-58
2022/07/20 15:26:32;;;;;;;4.80;3.90;;;27.00;51.10;;;;;;220555;1268;24218;-59
2022/07/20 15:31:50;;;;;;;6.80;4.20;;;27.00;50.90;;;;;;220266;1268;24333;-60
2022/07/20 15:37:29;;;;;;;19.40;6.00;;;27.00;50.80;;;;;;220164;1268;22646;-57
2022/07/20 15:42:46;;;;;;;8.30;4.30;;;27.00;51.50;;;;;;220450;1268;23139;-59
2022/07/20 15:47:53;;;;;;;11.10;4.00;;;27.10;51.10;;;;;;220260;1270;22658;-58
2022/07/20 15:53:01;;;;;;;10.40;4.40;;;27.20;51.30;;;;;;220014;1268;25693;-58
2022/07/20 15:58:09;;;;;;;8.60;4.80;;;27.50;49.00;;;;;;220310;1268;22554;-61
2022/07/20 16:03:16;;;;;;;9.60;4.80;;;27.40;49.90;;;;;;220279;1270;24267;-59
2022/07/20 16:08:23;;;;;;;13.20;4.70;;;27.40;50.20;;;;;;220386;1268;25245;-58
2022/07/20 16:13:34;;;;;;;7.60;4.60;;;27.30;49.90;;;;;;220195;1268;26598;-59
2022/07/20 16:18:39;;;;;;;6.50;4.60;;;27.30;50.80;;;;;;220156;1268;24339;-60
2022/07/20 16:23:43;;;;;;;7.50;4.80;;;27.30;50.70;;;;;;220442;1268;22533;-61
2022/07/20 16:28:49;;;;;;;8.90;4.70;;;27.30;50.80;;;;;;220326;1268;24243;-60
2022/07/20 16:33:57;;;;;;;7.80;4.70;;;27.30;50.50;;;;;;220510;1268;22869;-59
2022/07/20 16:39:00;;;;;;;5.90;4.80;;;27.30;51.00;;;;;;220172;1268;25251;-58
2022/07/20 16:44:08;;;;;;;8.30;4.60;;;27.30;51.10;;;;;;220769;1268;22820;-58
2022/07/20 16:49:12;;;;;;;6.60;4.10;;;27.30;51.20;;;;;;220129;1271;25429;-59
2022/07/20 16:54:28;;;;;;;6.20;4.40;;;27.30;51.30;;;;;;220190;1268;24236;-59
2022/07/20 16:59:32;;;;;;;8.40;4.60;;;27.30;51.10;;;;;;220340;1268;24215;-59
2022/07/20 17:04:37;;;;;;;8.30;5.00;;;27.30;51.30;;;;;;220409;1268;24215;-58
2022/07/20 17:09:45;;;;;;;5.70;4.20;;;27.30;51.20;;;;;;220353;1268;23045;-60
2022/07/20 17:14:52;;;;;;;9.30;4.80;;;27.30;51.60;;;;;;220665;1270;25241;-60
2022/07/20 17:19:58;;;;;;;7.00;4.60;;;27.30;51.70;;;;;;220427;1268;24152;-62
2022/07/20 17:25:03;;;;;;;5.80;4.60;;;27.30;51.50;;;;;;220218;1268;24431;-59
2022/07/20 17:30:10;;;;;;;6.30;4.50;;;27.30;51.90;;;;;;220923;1268;22545;-60
2022/07/20 17:35:16;;;;;;;5.80;4.60;;;27.30;51.60;;;;;;221094;1269;23038;-59
2022/07/20 17:40:21;;;;;;;6.50;4.40;;;27.30;51.60;;;;;;220327;1268;24218;-59
2022/07/20 17:45:27;;;;;;;7.70;4.80;;;27.30;51.60;;;;;;220122;1268;22743;-61
2022/07/20 17:50:33;;;;;;;6.30;4.90;;;27.30;51.50;;;;;;220419;1268;25751;-59
2022/07/20 17:55:36;;;;;;;6.60;4.70;;;27.30;51.80;;;;;;220303;1268;24231;-60
2022/07/20 18:00:42;;;;;;;8.80;4.90;;;27.30;51.30;;;;;;220206;1267;23448;-60
2022/07/20 18:05:46;;;;;;;6.20;4.50;;;27.30;51.40;;;;;;220546;1269;22600;-59
2022/07/20 18:10:49;;;;;;;6.00;4.30;;;27.30;51.00;;;;;;220128;1268;24216;-58
2022/07/20 18:15:53;;;;;;;6.20;4.50;;;27.30;51.40;;;;;;220181;1268;22560;-58
2022/07/20 18:21:00;;;;;;;5.80;4.20;;;27.30;51.10;;;;;;220766;1268;25397;-58
2022/07/20 18:26:05;;;;;;;6.50;4.40;;;27.30;50.50;;;;;;220954;1267;24271;-58
2022/07/20 18:31:10;;;;;;;5.60;4.50;;;27.30;51.50;;;;;;220552;1267;22541;-59
2022/07/20 18:36:14;;;;;;;5.80;5.20;;;27.30;50.80;;;;;;220519;1267;25375;-59
2022/07/20 18:41:17;;;;;;;5.10;4.20;;;27.30;50.60;;;;;;220394;1267;22600;-60
2022/07/20 18:46:22;;;;;;;6.50;4.40;;;27.30;50.90;;;;;;220423;1267;22942;-58
2022/07/20 18:51:26;;;;;;;6.80;5.00;;;27.30;50.80;;;;;;220522;1267;22556;-60
2022/07/20 18:56:29;;;;;;;7.30;4.80;;;27.30;50.90;;;;;;220481;1267;22532;-59
2022/07/20 19:01:54;;;;;;;5.50;4.10;;;27.20;50.80;;;;;;220569;1267;25145;-59
2022/07/20 19:06:58;;;;;;;7.10;5.10;;;27.20;50.50;;;;;;220561;1268;22567;-63
2022/07/20 19:12:02;;;;;;;5.50;4.50;;;27.20;50.40;;;;;;220503;1267;22564;-60
2022/07/20 19:17:06;;;;;;;6.40;4.60;;;27.20;50.50;;;;;;220940;1267;22546;-59
2022/07/20 19:22:20;;;;;;;7.50;5.00;;;27.20;50.50;;;;;;220472;1267;25249;-59
2022/07/20 19:27:23;;;;;;;7.30;4.80;;;27.20;50.50;;;;;;220589;1267;22603;-60
2022/07/20 19:32:27;;;;;;;6.60;4.60;;;27.20;50.50;;;;;;220826;1267;23035;-59
2022/07/20 19:37:32;;;;;;;7.00;4.70;;;27.20;50.60;;;;;;220612;1267;23006;-59
2022/07/20 19:42:36;;;;;;;8.20;4.50;;;27.20;50.10;;;;;;220519;1267;25300;-57
2022/07/20 19:47:43;;;;;;;6.90;5.00;;;27.20;50.80;;;;;;220637;1267;24041;-59
2022/07/20 19:52:49;;;;;;;5.90;4.60;;;27.10;50.60;;;;;;220450;1267;22689;-63
2022/07/20 19:57:59;;;;;;;7.60;5.10;;;27.20;50.10;;;;;;220442;1267;25235;-58
2022/07/20 20:03:07;;;;;;;8.60;5.00;;;27.10;49.90;;;;;;220564;1268;22617;-58
2022/07/20 20:08:11;;;;;;;7.10;4.80;;;27.10;50.00;;;;;;220391;1268;22551;-60
2022/07/20 20:13:20;;;;;;;8.10;5.60;;;27.10;50.20;;;;;;220109;1267;24383;-59
2022/07/20 20:18:33;;;;;;;7.50;5.10;;;27.10;50.00;;;;;;220627;1267;22569;-60
2022/07/20 20:23:40;;;;;;;10.50;5.40;;;27.10;50.00;;;;;;220665;1267;25233;-59
2022/07/20 20:28:46;;;;;;;6.10;5.20;;;27.10;50.10;;;;;;220369;1267;25249;-60
2022/07/20 20:34:10;;;;;;;9.10;5.50;;;27.10;50.70;;;;;;220256;1267;22824;-58
2022/07/20 20:39:14;;;;;;;8.70;5.30;;;27.10;50.50;;;;;;220108;1267;22651;-60
2022/07/20 20:44:21;;;;;;;9.20;5.30;;;27.10;50.20;;;;;;220206;1268;22559;-61
2022/07/20 20:49:25;;;;;;;9.90;5.60;;;27.10;50.10;;;;;;220335;1267;24201;-61
2022/07/20 20:54:30;;;;;;;7.20;5.50;;;27.10;50.10;;;;;;220592;1267;26551;-60
2022/07/20 20:59:33;;;;;;;9.70;5.40;;;27.00;50.00;;;;;;220554;1267;22563;-60
2022/07/20 21:04:37;;;;;;;10.10;6.00;;;27.10;50.00;;;;;;220200;1268;22637;-59
2022/07/20 21:09:41;;;;;;;7.70;5.80;;;27.10;50.00;;;;;;220114;1267;23046;-59
2022/07/20 21:14:44;;;;;;;7.30;6.10;;;27.00;49.80;;;;;;220393;1268;22763;-58
2022/07/20 21:19:48;;;;;;;9.70;5.70;;;27.00;49.90;;;;;;220644;1267;23025;-59
2022/07/20 21:24:52;;;;;;;10.50;6.00;;;27.00;49.80;;;;;;220433;1267;22563;-59
2022/07/20 21:29:56;;;;;;;11.00;6.30;;;27.00;49.80;;;;;;220369;1268;22531;-57
2022/07/20 21:35:08;;;;;;;8.40;5.80;;;27.00;49.70;;;;;;220680;1267;25047;-59
2022/07/20 21:40:17;;;;;;;10.60;6.00;;;27.00;49.70;;;;;;220486;1266;22567;-58
2022/07/20 21:45:21;;;;;;;9.00;6.10;;;27.00;49.70;;;;;;220349;1268;23934;-60
2022/07/20 21:50:28;;;;;;;12.70;6.10;;;27.00;49.90;;;;;;220571;1267;22538;-58
2022/07/20 21:55:33;;;;;;;9.60;6.10;;;27.00;49.50;;;;;;220291;1266;22553;-58
2022/07/20 22:00:40;;;;;;;8.00;6.40;;;27.00;49.50;;;;;;220584;1267;25650;-59
2022/07/20 22:05:47;;;;;;;8.50;5.90;;;27.00;49.50;;;;;;220497;1267;22547;-57
2022/07/20 22:10:50;;;;;;;9.10;6.10;;;26.90;49.50;;;;;;220403;1267;22567;-60
2022/07/20 22:15:55;;;;;;;11.80;6.40;;;26.90;49.60;;;;;;220193;1267;26571;-60
2022/07/20 22:21:01;;;;;;;8.10;5.70;;;26.90;50.20;;;;;;220482;1268;22628;-60
2022/07/20 22:26:05;;;;;;;12.10;6.20;;;26.90;50.00;;;;;;220466;1267;22525;-58
2022/07/20 22:31:08;;;;;;;10.30;5.70;;;26.90;49.60;;;;;;220429;1267;25257;-61
2022/07/20 22:36:12;;;;;;;9.50;6.00;;;26.90;49.80;;;;;;220476;1267;24208;-59
2022/07/20 22:41:16;;;;;;;9.80;6.10;;;26.90;49.70;;;;;;220920;1267;22550;-59
2022/07/20 22:46:20;;;;;;;10.00;6.10;;;26.90;49.80;;;;;;220544;1267;22553;-63
2022/07/20 22:51:27;;;;;;;9.20;6.10;;;26.90;49.80;;;;;;220557;1267;22565;-57
2022/07/20 22:56:31;;;;;;;9.20;5.30;;;26.90;49.80;;;;;;220830;1267;22554;-57
2022/07/20 23:01:34;;;;;;;10.40;6.10;;;26.90;49.90;;;;;;220278;1267;22714;-61
2022/07/20 23:06:39;;;;;;;9.20;5.50;;;26.90;49.90;;;;;;220234;1267;22565;-60
2022/07/20 23:11:43;;;;;;;9.00;5.70;;;26.90;49.90;;;;;;220582;1267;22550;-59
2022/07/20 23:16:46;;;;;;;14.10;5.90;;;26.90;50.10;;;;;;220940;1267;22562;-60
2022/07/20 23:21:51;;;;;;;7.30;6.10;;;26.90;50.20;;;;;;220328;1267;22623;-59
2022/07/20 23:26:55;;;;;;;8.70;5.60;;;26.80;50.30;;;;;;220351;1267;22595;-60
2022/07/20 23:31:58;;;;;;;7.70;5.40;;;26.80;50.40;;;;;;220273;1267;25215;-59
2022/07/20 23:37:03;;;;;;;10.40;5.80;;;26.80;50.40;;;;;;220274;1267;22543;-58
2022/07/20 23:42:06;;;;;;;8.60;5.80;;;26.90;50.50;;;;;;220103;1267;22727;-58
2022/07/20 23:47:10;;;;;;;9.20;5.90;;;26.80;50.40;;;;;;220213;1267;22537;-60
2022/07/20 23:52:14;;;;;;;9.10;5.70;;;26.80;50.50;;;;;;220093;1267;22563;-60
2022/07/20 23:57:18;;;;;;;8.20;5.50;;;26.80;50.50;;;;;;220428;1267;24766;-60
